• Join FlightAware (Why Join?)
  • Login
  • US Flag 
06:10AM EDT


 

Airport Tracker/Info


-or-


 

Live Flight TrackerFlight Track Log ✈ CHQ6096 ✈ 26-Apr-2013 ✈ KLGA - KLEX

Flight Track Log - Related Links

Times and Time Zones

All times are in EDT time to prevent confusion due to time zone crossing. See the CHQ6096 flight status page for this flight to view local times or setup timezone preferences in your user account.

Time Position Orientation Groundspeed Altitude Reporting Facility
EDT Latitude Longitude Course Direction KTS MPH feet Rate Location/Type
10:55PM 40.7667 -73.8333 264° West 161 185 1,400  Level New York TRACON
10:56PM 40.7833 -73.7833 66° East 191 220 3,400 1,980 Climbing New York TRACON
10:57PM 40.8333 -73.7667 14° North 252 290 5,400 2,400 Climbing New York TRACON
10:58PM 40.8500 -73.8500 285° West 257 296 8,200 2,640 Climbing New York TRACON
10:59PM 40.7418 -74.3153 264° West  Level FlightAware Approximate
10:59PM 40.8500 -73.9500 270° West 266 306 10,700  Level New York TRACON
11:00PM 40.7324 -74.4286 264° West  Level FlightAware Approximate
11:00PM 40.8333 -74.0500 258° West 300 345 12,300  Level New York TRACON
11:01PM 40.8000 -74.1667 249° West 334 384 13,500 1,200 Climbing New York TRACON
11:02PM 40.7500 -74.2667 237° Southwest 376 433 14,700 900 Climbing New York TRACON
11:05PM 40.7139 -74.6094 262° West 371 427 16,700 840 Climbing New York Center
11:06PM 40.7072 -74.7458 266° West 376 433 17,700 600 Climbing New York Center
11:07PM 40.6992 -74.8578 265° West 376 433 18,000 660 Climbing New York Center
11:08PM 40.6608 -75.0031 251° West 386 444 19,100 960 Climbing New York Center
11:09PM 40.6106 -75.1258 242° Southwest 381 438 20,000 900 Climbing New York Center
11:10PM 40.5575 -75.2564 242° Southwest 393 452 21,000 900 Climbing New York Center
11:11PM 40.5050 -75.3783 241° Southwest 393 452 21,900 900 Climbing New York Center
11:12PM 40.4539 -75.5086 243° Southwest 400 460 22,900 900 Climbing New York Center
11:13PM 40.4011 -75.6331 241° Southwest 400 460 23,800 900 Climbing New York Center
11:14PM 40.3522 -75.7550 242° Southwest 400 460 24,800 960 Climbing New York Center
11:15PM 40.2989 -75.8792 241° Southwest 394 453 25,700 960 Climbing New York Center
11:16PM 40.2436 -75.9975 239° Southwest 394 453 26,700 960 Climbing New York Center
11:17PM 40.1925 -76.1186 241° Southwest 384 442 27,700 900 Climbing New York Center
11:18PM 40.1433 -76.2369 242° Southwest 384 442 28,600 840 Climbing New York Center
11:19PM 40.0897 -76.3522 239° Southwest 379 436 29,500 960 Climbing New York Center
11:20PM 40.0386 -76.4675 240° Southwest 379 436 30,500 960 Climbing New York Center
11:22PM 39.9167 -76.7275 239° Southwest 381 438 32,700 960 Climbing Washington Center
11:23PM 39.8633 -76.8431 239° Southwest 381 438 33,600 600 Climbing Washington Center
11:24PM 39.8081 -76.9556 237° Southwest 381 438 34,000 180 Climbing Washington Center
11:25PM 39.7547 -77.0706 239° Southwest 381 438 34,000  Level Washington Center
11:26PM 39.6989 -77.1881 238° Southwest 381 438 34,000  Level Washington Center
11:27PM 39.6453 -77.3000 238° Southwest 381 438 34,000  Level Washington Center
11:28PM 39.5914 -77.4172 239° Southwest 381 438 34,000  Level Washington Center
11:29PM 39.5356 -77.5317 238° Southwest 381 438 34,000  Level Washington Center
11:30PM 39.4794 -77.6458 238° Southwest 381 438 34,000  Level Washington Center
11:31PM 39.4275 -77.7625 240° Southwest 381 438 34,000  Level Washington Center
11:32PM 39.3731 -77.8789 239° Southwest 381 438 34,000  Level Washington Center
11:33PM 39.3250 -78.0008 243° Southwest 381 438 34,000  Level Washington Center
11:34PM 39.2767 -78.1200 242° Southwest 381 438 34,000  Level Washington Center
11:35PM 39.2303 -78.2417 244° Southwest 381 438 34,000  Level Washington Center
11:36PM 39.1817 -78.3603 242° Southwest 381 438 34,000  Level Washington Center
11:37PM 39.1308 -78.4869 243° Southwest 381 438 34,000  Level Washington Center
11:38PM 39.0864 -78.6028 244° Southwest 371 427 34,000  Level Washington Center
11:39PM 39.0397 -78.7131 241° Southwest 366 421 34,000  Level Washington Center
11:40PM 38.9928 -78.8286 242° Southwest 360 414 34,000  Level Washington Center
11:41PM 38.9564 -78.9444 248° West 360 414 34,000  Level Washington Center
11:42PM 38.9386 -79.0531 258° West 354 407 34,000  Level Washington Center
11:43PM 38.9206 -79.1750 259° West 343 395 34,000  Level Washington Center
11:44PM 38.9022 -79.2994 259° West 354 407 34,000  Level Washington Center
11:45PM 38.8817 -79.4211 258° West 354 407 34,000  Level Washington Center
11:46PM 38.8631 -79.5428 259° West 354 407 34,000  Level Washington Center
11:47PM 38.8442 -79.6725 259° West 365 420 34,000  Level Washington Center
11:48PM 38.8228 -79.8072 259° West 365 420 34,000  Level Washington Center
11:49PM 38.8019 -79.9283 258° West 360 414 34,000  Level Washington Center
11:50PM 38.7725 -80.0917 257° West 357 411 34,000  Level Indianapolis Center
11:52PM 38.7528 -80.2156 258° West 355 409 34,000  Level Indianapolis Center
11:53PM 38.7275 -80.3636 258° West 355 409 34,000  Level Indianapolis Center
11:54PM 38.7081 -80.4864 259° West 352 405 34,000  Level Indianapolis Center
11:55PM 38.6872 -80.6106 258° West 357 411 34,000  Level Indianapolis Center
11:56PM 38.6664 -80.7336 258° West 353 406 34,000  Level Indianapolis Center
11:57PM 38.6450 -80.8578 258° West 358 412 34,000  Level Indianapolis Center
11:58PM 38.6242 -80.9806 258° West 355 409 34,000  Level Indianapolis Center
11:59PM 38.6017 -81.1042 257° West 355 409 34,000  Level Indianapolis Center
12:00AM 38.5808 -81.2286 258° West 356 410 34,000  Level Indianapolis Center
12:01AM 38.5586 -81.3539 257° West 357 411 34,000  Level Indianapolis Center
12:02AM 38.5367 -81.4806 258° West 358 412 34,000  Level Indianapolis Center
12:03AM 38.5147 -81.6069 258° West 358 412 34,000  Level Indianapolis Center
12:04AM 38.4928 -81.7319 257° West 357 411 34,000  Level Indianapolis Center
12:05AM 38.4697 -81.8558 257° West 357 411 34,000  Level Indianapolis Center
12:06AM 38.4472 -81.9806 257° West 359 413 34,000 -480 Level Indianapolis Center
12:07AM 38.4253 -82.1044 257° West 357 411 33,100 -1,500 Descending Indianapolis Center
12:08AM 38.4019 -82.2281 256° West 358 412 31,000 -2,040 Descending Indianapolis Center
12:09AM 38.3797 -82.3503 257° West 354 407 29,000 -2,040 Descending Indianapolis Center
12:10AM 38.3569 -82.4750 257° West 359 413 27,000 -2,040 Descending Indianapolis Center
12:11AM 38.3314 -82.6081 256° West 367 422 24,900 -1,500 Descending Indianapolis Center
12:12AM 38.3061 -82.7417 256° West 384 442 24,000 -480 Descending Indianapolis Center
12:13AM 38.2814 -82.8775 257° West 393 452 24,000  Level Indianapolis Center
12:14AM 38.2544 -83.0150 256° West 400 460 24,000  Level Indianapolis Center
12:15AM 38.2278 -83.1553 256° West 408 470 24,000 -720 Level Indianapolis Center
12:16AM 38.2017 -83.2922 256° West 402 463 22,600 -1,740 Descending Indianapolis Center
12:17AM 38.1750 -83.4272 256° West 396 456 20,600 -2,220 Descending Indianapolis Center
12:18AM 38.1483 -83.5619 256° West 393 452 18,200 -2,460 Descending Indianapolis Center
12:19AM 38.1239 -83.6856 256° West 370 426 15,700 -2,760 Descending Indianapolis Center
12:20AM 38.1011 -83.8014 256° West 345 397 12,700 -2,580 Descending Indianapolis Center
12:21AM 38.0808 -83.9133 257° West 329 379 10,500 -1,860 Descending Indianapolis Center
12:22AM 38.0878 -84.0139 275° West 287 330 9,000 -1,620 Descending Indianapolis Center
12:23AM 38.0953 -84.1078 276° West 271 312 7,300 -1,440 Descending Indianapolis Center
12:24AM 38.1019 -84.1983 275° West 260 299 6,100 -1,200 Descending Indianapolis Center
12:25AM 38.1083 -84.2839 275° West 250 288 4,900 -1,200 Descending Indianapolis Center
12:26AM 38.1133 -84.3694 274° West 245 282 3,700 -900 Descending Indianapolis Center
12:27AM 38.1094 -84.4511 267° West 238 274 3,200 -420 Descending Indianapolis Center
12:28AM 38.1039 -84.5239 264° West 222 255 2,900 -300 Descending Indianapolis Center